createdAt,value
2018-06-21T00:00:58.596Z,1010.48
2018-06-21T00:01:58.594Z,1010.47
2018-06-21T00:02:58.542Z,1010.47
2018-06-21T00:03:58.612Z,1010.47
2018-06-21T00:04:58.627Z,1010.46
2018-06-21T00:05:58.844Z,1010.51
2018-06-21T00:06:58.561Z,1010.50
2018-06-21T00:07:58.665Z,1010.50
2018-06-21T00:08:58.663Z,1010.51
2018-06-21T00:09:58.692Z,1010.46
2018-06-21T00:10:58.612Z,1010.47
2018-06-21T00:11:58.605Z,1010.44
2018-06-21T00:12:58.609Z,1010.42
2018-06-21T00:13:58.639Z,1010.44
2018-06-21T00:14:58.612Z,1010.40
2018-06-21T00:15:58.666Z,1010.44
2018-06-21T00:16:58.560Z,1010.39
2018-06-21T00:17:58.601Z,1010.44
2018-06-21T00:18:58.662Z,1010.42
2018-06-21T00:19:58.676Z,1010.41
2018-06-21T00:20:58.669Z,1010.41
2018-06-21T00:21:58.656Z,1010.38
2018-06-21T00:22:58.672Z,1010.41
2018-06-21T00:23:58.626Z,1010.37
2018-06-21T00:24:58.613Z,1010.35
2018-06-21T00:25:58.673Z,1010.35
2018-06-21T00:26:58.617Z,1010.38
2018-06-21T00:27:58.625Z,1010.35
2018-06-21T00:28:58.658Z,1010.34
2018-06-21T00:29:58.658Z,1010.35
2018-06-21T00:30:58.643Z,1010.37
2018-06-21T00:31:58.663Z,1010.34
2018-06-21T00:32:58.660Z,1010.24
2018-06-21T00:33:58.682Z,1010.21
2018-06-21T00:34:58.678Z,1010.23
2018-06-21T00:35:58.666Z,1010.20
2018-06-21T00:36:58.661Z,1010.24
2018-06-21T00:37:58.696Z,1010.27
2018-06-21T00:38:58.670Z,1010.23
2018-06-21T00:39:58.894Z,1010.18
2018-06-21T00:40:58.674Z,1010.17
2018-06-21T00:41:58.671Z,1010.11
2018-06-21T00:42:59.575Z,1010.10
2018-06-21T00:43:58.689Z,1010.12
2018-06-21T00:44:58.715Z,1010.08
2018-06-21T00:45:58.702Z,1010.05
2018-06-21T00:46:58.741Z,1010.05
2018-06-21T00:47:58.669Z,1010.03
2018-06-21T00:48:58.760Z,1010.03
2018-06-21T00:49:58.671Z,1009.97
2018-06-21T00:50:58.684Z,1009.95
2018-06-21T00:51:58.705Z,1009.91
2018-06-21T00:52:58.716Z,1009.90
2018-06-21T00:53:58.704Z,1009.91
2018-06-21T00:54:58.675Z,1009.88
2018-06-21T00:55:58.712Z,1009.88
2018-06-21T00:56:58.702Z,1009.85
2018-06-21T00:57:58.766Z,1009.89
2018-06-21T00:58:58.669Z,1009.83
2018-06-21T00:59:58.714Z,1009.76
2018-06-21T01:00:58.768Z,1009.78
2018-06-21T01:01:58.700Z,1009.71
2018-06-21T01:02:58.760Z,1009.71
2018-06-21T01:03:58.694Z,1009.72
2018-06-21T01:04:58.746Z,1009.66
2018-06-21T01:05:58.785Z,1009.69
2018-06-21T01:06:58.795Z,1009.67
2018-06-21T01:07:58.714Z,1009.65
2018-06-21T01:08:58.785Z,1009.67
2018-06-21T01:09:58.731Z,1009.60
2018-06-21T01:10:58.733Z,1009.60
2018-06-21T01:11:58.731Z,1009.58
2018-06-21T01:12:58.756Z,1009.62
2018-06-21T01:13:59.576Z,1009.54
2018-06-21T01:14:58.743Z,1009.55
2018-06-21T01:15:58.766Z,1009.61
2018-06-21T01:16:58.732Z,1009.56
2018-06-21T01:17:58.765Z,1009.58
2018-06-21T01:18:58.746Z,1009.57
2018-06-21T01:19:58.818Z,1009.52
2018-06-21T01:20:58.780Z,1009.54
2018-06-21T01:21:58.794Z,1009.54
2018-06-21T01:22:59.159Z,1009.60
2018-06-21T01:23:58.731Z,1009.53
2018-06-21T01:24:58.775Z,1009.58
2018-06-21T01:25:58.809Z,1009.55
2018-06-21T01:26:58.826Z,1009.56
2018-06-21T01:27:58.821Z,1009.52
2018-06-21T01:28:58.860Z,1009.48
2018-06-21T01:29:58.762Z,1009.51
2018-06-21T01:30:58.786Z,1009.43
2018-06-21T01:31:58.841Z,1009.47
2018-06-21T01:32:58.801Z,1009.50
2018-06-21T01:33:58.803Z,1009.48
2018-06-21T01:34:58.789Z,1009.50
2018-06-21T01:35:58.808Z,1009.49
2018-06-21T01:36:58.850Z,1009.52
2018-06-21T01:37:58.863Z,1009.48
2018-06-21T01:38:58.822Z,1009.48
2018-06-21T01:39:58.843Z,1009.46
2018-06-21T01:40:58.797Z,1009.43
2018-06-21T01:41:58.846Z,1009.46
2018-06-21T01:42:58.787Z,1009.46
2018-06-21T01:43:58.846Z,1009.44
2018-06-21T01:44:58.838Z,1009.42
2018-06-21T01:45:58.854Z,1009.42
2018-06-21T01:46:58.810Z,1009.43
2018-06-21T01:47:58.838Z,1009.42
2018-06-21T01:48:58.866Z,1009.42
2018-06-21T01:49:58.859Z,1009.43
2018-06-21T01:50:58.857Z,1009.44
2018-06-21T01:51:58.888Z,1009.46
2018-06-21T01:52:58.869Z,1009.50
2018-06-21T01:53:58.900Z,1009.53
2018-06-21T01:54:58.876Z,1009.53
2018-06-21T01:55:58.854Z,1009.54
2018-06-21T01:56:58.896Z,1009.51
2018-06-21T01:57:58.865Z,1009.49
2018-06-21T01:58:58.885Z,1009.49
2018-06-21T01:59:58.841Z,1009.48
2018-06-21T02:00:58.845Z,1009.48
2018-06-21T02:01:58.843Z,1009.46
2018-06-21T02:02:58.882Z,1009.44
2018-06-21T02:03:58.930Z,1009.40
2018-06-21T02:04:58.883Z,1009.40
2018-06-21T02:05:58.879Z,1009.39
2018-06-21T02:06:58.857Z,1009.36
2018-06-21T02:07:58.913Z,1009.33
2018-06-21T02:08:58.969Z,1009.35
2018-06-21T02:09:58.902Z,1009.32
2018-06-21T02:10:59.014Z,1009.34
2018-06-21T02:11:58.895Z,1009.27
2018-06-21T02:12:58.905Z,1009.26
2018-06-21T02:13:58.871Z,1009.19
2018-06-21T02:14:58.907Z,1009.24
2018-06-21T02:15:58.867Z,1009.21
2018-06-21T02:16:58.946Z,1009.23
2018-06-21T02:17:58.958Z,1009.19
2018-06-21T02:18:58.933Z,1009.22
2018-06-21T02:19:58.888Z,1009.18
2018-06-21T02:20:58.939Z,1009.13
2018-06-21T02:21:58.949Z,1009.18
2018-06-21T02:22:58.915Z,1009.15
2018-06-21T02:23:58.940Z,1009.16
2018-06-21T02:24:58.908Z,1009.15
2018-06-21T02:25:58.944Z,1009.11
2018-06-21T02:26:58.904Z,1009.14
2018-06-21T02:27:58.976Z,1009.13
2018-06-21T02:28:58.958Z,1009.11
2018-06-21T02:29:58.966Z,1009.13
2018-06-21T02:30:58.956Z,1009.09
2018-06-21T02:31:58.973Z,1009.06
2018-06-21T02:32:58.908Z,1009.03
2018-06-21T02:33:58.968Z,1009.02
2018-06-21T02:34:58.998Z,1009.01
2018-06-21T02:35:58.912Z,1009.02
2018-06-21T02:36:58.952Z,1009.03
2018-06-21T02:37:58.976Z,1008.97
2018-06-21T02:38:58.930Z,1008.91
2018-06-21T02:39:58.978Z,1008.93
2018-06-21T02:40:58.982Z,1008.87
2018-06-21T02:41:58.968Z,1008.82
2018-06-21T02:42:59.252Z,1008.82
2018-06-21T02:43:59.008Z,1008.79
2018-06-21T02:44:59.610Z,1008.78
2018-06-21T02:45:58.984Z,1008.77
2018-06-21T02:46:58.984Z,1008.72
2018-06-21T02:47:58.990Z,1008.72
2018-06-21T02:48:59.037Z,1008.73
2018-06-21T02:49:58.968Z,1008.68
2018-06-21T02:50:58.978Z,1008.71
2018-06-21T02:51:59.088Z,1008.68
2018-06-21T02:52:59.013Z,1008.61
2018-06-21T02:53:58.971Z,1008.63
2018-06-21T02:54:58.996Z,1008.64
2018-06-21T02:55:59.952Z,1008.56
2018-06-21T02:56:59.271Z,1008.60
2018-06-21T02:57:59.071Z,1008.57
2018-06-21T02:58:59.177Z,1008.57
2018-06-21T02:59:59.147Z,1008.58
2018-06-21T03:00:59.650Z,1008.59
2018-06-21T03:01:59.151Z,1008.60
2018-06-21T03:02:59.914Z,1008.62
2018-06-21T03:03:59.261Z,1008.58
2018-06-21T03:04:59.009Z,1008.59
2018-06-21T03:05:59.020Z,1008.58
2018-06-21T03:06:59.068Z,1008.54
2018-06-21T03:07:59.076Z,1008.58
2018-06-21T03:08:59.043Z,1008.56
2018-06-21T03:09:59.056Z,1008.55
2018-06-21T03:10:59.019Z,1008.53
2018-06-21T03:11:59.619Z,1008.49
2018-06-21T03:12:59.061Z,1008.51
2018-06-21T03:13:59.063Z,1008.53
2018-06-21T03:14:59.058Z,1008.46
2018-06-21T03:15:59.034Z,1008.47
2018-06-21T03:16:59.035Z,1008.46
2018-06-21T03:17:59.625Z,1008.44
2018-06-21T03:18:59.210Z,1008.44
2018-06-21T03:19:59.045Z,1008.44
2018-06-21T03:20:59.040Z,1008.50
2018-06-21T03:21:59.119Z,1008.51
2018-06-21T03:22:59.330Z,1008.53
2018-06-21T03:23:59.124Z,1008.54
2018-06-21T03:24:59.094Z,1008.53
2018-06-21T03:25:59.074Z,1008.57
2018-06-21T03:26:59.072Z,1008.55
2018-06-21T03:27:59.107Z,1008.52
2018-06-21T03:28:59.091Z,1008.49
2018-06-21T03:29:59.130Z,1008.48
2018-06-21T03:30:59.100Z,1008.48
2018-06-21T03:31:59.113Z,1008.50
2018-06-21T03:32:59.096Z,1008.52
2018-06-21T03:33:59.080Z,1008.53
2018-06-21T03:34:59.081Z,1008.44
2018-06-21T03:35:59.114Z,1008.40
2018-06-21T03:36:59.113Z,1008.34
2018-06-21T03:37:59.098Z,1008.38
2018-06-21T03:38:59.117Z,1008.35
2018-06-21T03:39:59.124Z,1008.32
2018-06-21T03:40:59.079Z,1008.33
2018-06-21T03:41:59.119Z,1008.27
2018-06-21T03:42:59.117Z,1008.26
2018-06-21T03:43:59.120Z,1008.26
2018-06-21T03:44:59.091Z,1008.23
2018-06-21T03:45:59.119Z,1008.24
2018-06-21T03:46:59.138Z,1008.28
2018-06-21T03:47:59.152Z,1008.26
2018-06-21T03:49:00.138Z,1008.23
2018-06-21T03:49:59.130Z,1008.28
2018-06-21T03:50:59.127Z,1008.26
2018-06-21T03:51:59.117Z,1008.27
2018-06-21T03:52:59.202Z,1008.17
2018-06-21T03:53:59.144Z,1008.16
2018-06-21T03:54:59.123Z,1008.13
2018-06-21T03:55:59.169Z,1008.14
2018-06-21T03:56:59.194Z,1008.13
2018-06-21T03:57:59.184Z,1008.14
2018-06-21T03:58:59.155Z,1008.07
2018-06-21T03:59:59.230Z,1008.10
2018-06-21T04:00:59.188Z,1008.07
2018-06-21T04:01:59.131Z,1008.05
2018-06-21T04:02:59.313Z,1008.00
2018-06-21T04:03:59.178Z,1008.02
2018-06-21T04:04:59.146Z,1008.01
2018-06-21T04:05:59.154Z,1007.99
2018-06-21T04:06:59.199Z,1008.03
2018-06-21T04:07:59.214Z,1007.97
2018-06-21T04:08:59.181Z,1007.97
2018-06-21T04:09:59.184Z,1007.96
2018-06-21T04:10:59.154Z,1007.99
2018-06-21T04:11:59.227Z,1008.01
2018-06-21T04:12:59.230Z,1008.00
2018-06-21T04:13:59.187Z,1008.03
2018-06-21T04:14:59.197Z,1008.05
2018-06-21T04:15:59.265Z,1008.05
2018-06-21T04:16:59.204Z,1008.10
2018-06-21T04:17:59.226Z,1008.05
2018-06-21T04:18:59.212Z,1008.11
2018-06-21T04:19:59.172Z,1008.11
2018-06-21T04:20:59.212Z,1008.11
2018-06-21T04:21:59.234Z,1008.16
2018-06-21T04:22:59.217Z,1008.16
2018-06-21T04:23:59.249Z,1008.14
2018-06-21T04:24:59.238Z,1008.18
2018-06-21T04:25:59.272Z,1008.19
2018-06-21T04:26:59.234Z,1008.18
2018-06-21T04:28:01.484Z,1008.15
2018-06-21T04:28:59.242Z,1008.13
2018-06-21T04:29:59.241Z,1008.14
2018-06-21T04:30:59.295Z,1008.07
2018-06-21T04:31:59.211Z,1008.04
2018-06-21T04:32:59.197Z,1008.05
2018-06-21T04:33:59.244Z,1008.00
2018-06-21T04:34:59.249Z,1007.97
2018-06-21T04:35:59.316Z,1007.95
2018-06-21T04:36:59.294Z,1007.92
2018-06-21T04:37:59.224Z,1007.92
2018-06-21T04:38:59.255Z,1007.91
2018-06-21T04:39:59.281Z,1007.95
2018-06-21T04:40:59.284Z,1007.92
2018-06-21T04:41:59.258Z,1007.93
2018-06-21T04:42:59.303Z,1007.98
2018-06-21T04:43:59.273Z,1007.95
2018-06-21T04:44:59.267Z,1007.96
2018-06-21T04:45:59.266Z,1007.97
2018-06-21T04:46:59.260Z,1007.96
2018-06-21T04:47:59.304Z,1007.97
2018-06-21T04:48:59.299Z,1008.01
2018-06-21T04:49:59.264Z,1008.00
2018-06-21T04:50:59.293Z,1008.00
2018-06-21T04:51:59.310Z,1007.98
2018-06-21T04:52:59.276Z,1007.94
2018-06-21T04:53:59.302Z,1007.96
2018-06-21T04:54:59.262Z,1007.93
2018-06-21T04:55:59.310Z,1007.96
2018-06-21T04:56:59.330Z,1007.93
2018-06-21T04:57:59.328Z,1007.94
2018-06-21T04:58:59.327Z,1007.95
2018-06-21T04:59:59.376Z,1007.95
2018-06-21T05:00:59.300Z,1007.96
2018-06-21T05:01:59.274Z,1007.91
2018-06-21T05:02:59.312Z,1007.93
2018-06-21T05:03:59.330Z,1007.91
2018-06-21T05:04:59.353Z,1007.95
2018-06-21T05:05:59.393Z,1007.91
2018-06-21T05:06:59.350Z,1007.96
2018-06-21T05:07:59.324Z,1007.95
2018-06-21T05:08:59.412Z,1007.95
2018-06-21T05:09:59.342Z,1007.98
2018-06-21T05:10:59.351Z,1007.95
2018-06-21T05:11:59.368Z,1007.94
2018-06-21T05:12:59.373Z,1007.92
2018-06-21T05:13:59.335Z,1007.90
2018-06-21T05:14:59.363Z,1007.91
2018-06-21T05:15:59.355Z,1008.04
2018-06-21T05:16:59.313Z,1008.06
2018-06-21T05:17:59.387Z,1008.13
2018-06-21T05:18:59.406Z,1008.08
2018-06-21T05:19:59.438Z,1007.92
2018-06-21T05:20:59.349Z,1007.94
2018-06-21T05:21:59.506Z,1007.93
2018-06-21T05:22:59.375Z,1007.95
2018-06-21T05:23:59.492Z,1007.98
2018-06-21T05:24:59.414Z,1007.98
2018-06-21T05:25:59.338Z,1008.06
2018-06-21T05:26:59.386Z,1008.09
2018-06-21T05:27:59.412Z,1008.09
2018-06-21T05:28:59.446Z,1008.07
2018-06-21T05:29:59.433Z,1007.99
2018-06-21T05:30:59.428Z,1008.00
2018-06-21T05:31:59.406Z,1008.01
2018-06-21T05:32:59.373Z,1007.97
2018-06-21T05:33:59.397Z,1007.94
2018-06-21T05:34:59.403Z,1007.94
2018-06-21T05:35:59.457Z,1007.96
2018-06-21T05:36:59.387Z,1007.98
2018-06-21T05:37:59.443Z,1007.96
2018-06-21T05:38:59.415Z,1008.00
2018-06-21T05:39:59.430Z,1008.02
2018-06-21T05:40:59.539Z,1008.03
2018-06-21T05:41:59.379Z,1008.07
2018-06-21T05:43:00.180Z,1008.10
2018-06-21T05:43:59.376Z,1008.13
2018-06-21T05:44:59.403Z,1008.19
2018-06-21T05:45:59.405Z,1008.17
2018-06-21T05:46:59.467Z,1008.25
2018-06-21T05:47:59.396Z,1008.25
2018-06-21T05:48:59.464Z,1008.27
2018-06-21T05:49:59.467Z,1008.25
2018-06-21T05:50:59.633Z,1008.17
2018-06-21T05:51:59.428Z,1008.17
2018-06-21T05:52:59.540Z,1008.13
2018-06-21T05:53:59.466Z,1008.15
2018-06-21T05:54:59.548Z,1008.14
2018-06-21T05:55:59.524Z,1008.29
2018-06-21T05:56:59.463Z,1008.32
2018-06-21T05:57:59.440Z,1008.28
2018-06-21T05:58:59.457Z,1008.25
2018-06-21T05:59:59.534Z,1008.24
2018-06-21T06:00:59.543Z,1008.16
2018-06-21T06:01:59.555Z,1008.15
2018-06-21T06:02:59.492Z,1008.23
2018-06-21T06:03:59.502Z,1008.20
2018-06-21T06:04:59.496Z,1008.12
2018-06-21T06:05:59.472Z,1008.10
2018-06-21T06:06:59.483Z,1008.12
2018-06-21T06:07:59.484Z,1008.11
2018-06-21T06:08:59.549Z,1008.07
2018-06-21T06:09:59.515Z,1008.12
2018-06-21T06:10:59.488Z,1008.14
2018-06-21T06:11:59.507Z,1008.14
2018-06-21T06:13:01.877Z,1008.21
2018-06-21T06:13:59.561Z,1008.30
2018-06-21T06:14:59.582Z,1008.31
2018-06-21T06:15:59.570Z,1008.36
2018-06-21T06:16:59.513Z,1008.41
2018-06-21T06:17:59.577Z,1008.46
2018-06-21T06:18:59.527Z,1008.48
2018-06-21T06:20:00.212Z,1008.41
2018-06-21T06:20:59.536Z,1008.44
2018-06-21T06:21:59.674Z,1008.42
2018-06-21T06:22:59.519Z,1008.40
2018-06-21T06:24:00.201Z,1008.48
2018-06-21T06:24:59.530Z,1008.50
2018-06-21T06:25:59.567Z,1008.54
2018-06-21T06:26:59.552Z,1008.59
2018-06-21T06:27:59.780Z,1008.56
2018-06-21T06:28:59.536Z,1008.58
2018-06-21T06:30:00.211Z,1008.62
2018-06-21T06:30:59.666Z,1008.61
2018-06-21T06:31:59.786Z,1008.60
2018-06-21T06:32:59.522Z,1008.59
2018-06-21T06:33:59.625Z,1008.56
2018-06-21T06:34:59.962Z,1008.62
2018-06-21T06:35:59.530Z,1008.58
2018-06-21T06:36:59.670Z,1008.59
2018-06-21T06:37:59.631Z,1008.58
2018-06-21T06:38:59.605Z,1008.61
2018-06-21T06:39:59.559Z,1008.67
2018-06-21T06:40:59.564Z,1008.71
2018-06-21T06:41:59.568Z,1008.70
2018-06-21T06:42:59.880Z,1008.63
2018-06-21T06:43:59.659Z,1008.67
2018-06-21T06:44:59.606Z,1008.73
2018-06-21T06:45:59.592Z,1008.65
2018-06-21T06:46:59.583Z,1008.66
2018-06-21T06:47:59.581Z,1008.71
2018-06-21T06:48:59.613Z,1008.73
2018-06-21T06:49:59.722Z,1008.74
2018-06-21T06:50:59.652Z,1008.74
2018-06-21T06:51:59.611Z,1008.71
2018-06-21T06:52:59.553Z,1008.79
2018-06-21T06:54:00.398Z,1008.77
2018-06-21T06:54:59.564Z,1008.82
2018-06-21T06:56:59.603Z,1008.76
2018-06-21T06:57:59.604Z,1008.73
2018-06-21T06:58:59.676Z,1008.78
2018-06-21T07:00:00.207Z,1008.82
2018-06-21T07:00:59.618Z,1008.78
2018-06-21T07:01:59.628Z,1008.81
2018-06-21T07:02:59.627Z,1008.87
2018-06-21T07:03:59.628Z,1008.85
2018-06-21T07:04:59.579Z,1008.86
2018-06-21T07:06:00.227Z,1008.85
2018-06-21T07:06:59.677Z,1008.91
2018-06-21T07:07:59.606Z,1008.84
2018-06-21T07:08:59.655Z,1008.89
2018-06-21T07:09:59.713Z,1008.95
2018-06-21T07:10:59.618Z,1008.96
2018-06-21T07:11:59.651Z,1008.93
2018-06-21T07:12:59.701Z,1009.00
2018-06-21T07:13:59.677Z,1008.99
2018-06-21T07:14:59.694Z,1009.04
2018-06-21T07:15:59.660Z,1008.99
2018-06-21T07:17:02.508Z,1009.00
2018-06-21T07:18:21.138Z,1009.12
2018-06-21T07:18:59.670Z,1009.14
2018-06-21T07:19:59.707Z,1009.06
2018-06-21T07:21:00.300Z,1009.05
2018-06-21T07:22:00.714Z,1008.97
2018-06-21T07:22:59.724Z,1009.04
2018-06-21T07:24:00.597Z,1009.11
2018-06-21T07:24:59.650Z,1009.15
2018-06-21T07:25:59.682Z,1009.18
2018-06-21T07:26:59.740Z,1009.15
2018-06-21T07:27:59.989Z,1009.20
2018-06-21T07:28:59.648Z,1009.20
2018-06-21T07:29:59.687Z,1009.25
2018-06-21T07:30:59.670Z,1009.29
2018-06-21T07:32:00.353Z,1009.21
2018-06-21T07:32:59.741Z,1009.24
2018-06-21T07:33:59.733Z,1009.26
2018-06-21T07:34:59.743Z,1009.28
2018-06-21T07:35:59.742Z,1009.38
2018-06-21T07:36:59.679Z,1009.52
2018-06-21T07:37:59.731Z,1009.94
2018-06-21T07:39:01.037Z,1009.65
2018-06-21T07:40:00.139Z,1009.53
2018-06-21T07:40:59.718Z,1009.61
2018-06-21T07:41:59.732Z,1009.68
2018-06-21T07:42:59.739Z,1010.03
2018-06-21T07:43:59.728Z,1009.60
2018-06-21T07:44:59.794Z,1009.50
2018-06-21T07:45:59.755Z,1009.50
2018-06-21T07:46:59.769Z,1009.51
2018-06-21T07:47:59.718Z,1009.63
2018-06-21T07:49:00.229Z,1009.61
2018-06-21T07:49:59.738Z,1009.63
2018-06-21T07:50:59.765Z,1009.58
2018-06-21T07:51:59.702Z,1009.65
2018-06-21T07:52:59.758Z,1009.66
2018-06-21T07:53:59.713Z,1009.60
2018-06-21T07:54:59.859Z,1009.70
2018-06-21T07:55:59.838Z,1009.66
2018-06-21T07:56:59.726Z,1009.71
2018-06-21T07:57:59.753Z,1009.75
2018-06-21T07:58:59.864Z,1010.36
2018-06-21T07:59:59.750Z,1010.12
2018-06-21T08:00:59.806Z,1010.45
2018-06-21T08:02:00.367Z,1010.02
2018-06-21T08:02:59.777Z,1010.91
2018-06-21T08:04:00.359Z,1011.65
2018-06-21T08:04:59.861Z,1012.27
2018-06-21T08:05:59.834Z,1011.63
2018-06-21T08:06:59.897Z,1018.17
2018-06-21T08:07:59.764Z,1011.58
2018-06-21T08:08:59.823Z,1021.66
2018-06-21T08:10:04.393Z,1029.91
2018-06-21T08:10:59.778Z,1011.58
2018-06-21T08:11:59.895Z,1010.75
2018-06-21T08:12:59.867Z,1010.49
2018-06-21T08:13:59.795Z,1010.40
2018-06-21T08:14:59.780Z,1023.97
2018-06-21T08:15:59.846Z,1025.79
2018-06-21T08:16:59.924Z,1015.68
2018-06-21T08:17:59.845Z,1014.02
2018-06-21T08:18:59.863Z,1015.03
2018-06-21T08:20:00.386Z,1026.15
2018-06-21T08:20:59.853Z,1011.15
2018-06-21T08:21:59.968Z,1010.67
2018-06-21T08:23:00.510Z,1010.64
2018-06-21T08:23:59.820Z,1010.64
2018-06-21T08:25:00.147Z,1010.31
2018-06-21T08:25:59.942Z,1010.15
2018-06-21T08:26:59.916Z,1010.03
2018-06-21T08:27:59.905Z,1010.25
2018-06-21T08:28:59.910Z,1010.12
2018-06-21T08:30:00.859Z,1010.11
2018-06-21T08:31:00.912Z,1010.18
2018-06-21T08:32:03.000Z,1010.12
2018-06-21T08:33:02.848Z,1010.25
2018-06-21T08:33:59.986Z,1012.90
2018-06-21T08:35:09.492Z,1010.89
2018-06-21T08:36:00.345Z,1010.28
2018-06-21T08:37:00.116Z,1027.25
2018-06-21T08:37:59.985Z,1011.12
2018-06-21T08:39:00.224Z,1011.21
2018-06-21T08:40:00.103Z,1011.39
2018-06-21T08:41:00.222Z,1011.64
2018-06-21T08:41:59.929Z,1012.01
2018-06-21T08:43:00.009Z,1024.68
2018-06-21T08:43:59.962Z,1012.04
2018-06-21T08:45:00.057Z,1011.91
2018-06-21T08:46:00.007Z,1013.56
2018-06-21T08:47:00.047Z,1010.90
2018-06-21T08:47:59.996Z,1010.73
2018-06-21T08:49:04.906Z,1010.57
2018-06-21T08:49:59.986Z,1010.71
2018-06-21T08:50:59.991Z,1011.13
2018-06-21T08:52:00.943Z,1010.74
2018-06-21T08:53:00.109Z,1013.64
2018-06-21T08:54:00.017Z,1012.89
2018-06-21T08:55:00.040Z,1013.43
2018-06-21T08:56:00.660Z,1013.33
2018-06-21T08:57:01.388Z,1013.08
2018-06-21T08:58:00.906Z,1013.21
2018-06-21T08:59:00.028Z,1013.42
2018-06-21T09:00:00.117Z,1013.31
2018-06-21T09:01:00.803Z,1012.70
2018-06-21T09:02:00.087Z,1011.96
2018-06-21T09:03:00.121Z,1012.40
2018-06-21T09:04:00.042Z,1012.03
2018-06-21T09:05:00.082Z,1012.06
2018-06-21T09:06:00.098Z,1013.18
2018-06-21T09:07:02.913Z,1013.07
2018-06-21T09:08:00.164Z,1012.50
2018-06-21T09:09:00.769Z,1011.07
2018-06-21T09:10:00.123Z,1012.14
2018-06-21T09:11:00.104Z,1012.11
2018-06-21T09:12:00.132Z,1012.76
2018-06-21T09:13:00.161Z,1012.30
2018-06-21T09:14:00.771Z,1011.85
2018-06-21T09:15:00.456Z,1012.26
2018-06-21T09:16:01.745Z,1012.03
2018-06-21T09:17:00.219Z,1011.92
2018-06-21T09:18:06.934Z,1011.83
2018-06-21T09:19:00.171Z,1011.61
2018-06-21T09:20:00.146Z,1012.04
2018-06-21T09:21:00.246Z,1011.93
2018-06-21T09:22:00.227Z,1011.58
2018-06-21T09:23:00.219Z,1011.12
2018-06-21T09:24:00.356Z,1011.12
2018-06-21T09:25:00.195Z,1011.06
2018-06-21T09:26:08.504Z,1011.05
2018-06-21T09:27:00.869Z,1010.72
2018-06-21T09:28:00.242Z,1010.75
2018-06-21T09:29:00.272Z,1010.77
2018-06-21T09:30:00.348Z,1010.82
2018-06-21T09:31:00.785Z,1011.04
2018-06-21T09:32:00.308Z,1011.10
2018-06-21T09:33:00.314Z,1011.12
2018-06-21T09:34:00.347Z,1011.11
2018-06-21T09:35:00.293Z,1011.26
2018-06-21T09:36:00.308Z,1011.28
2018-06-21T09:37:00.455Z,1011.48
2018-06-21T09:38:00.310Z,1011.85
2018-06-21T09:39:00.263Z,1011.71
2018-06-21T09:40:00.293Z,1011.94
2018-06-21T09:41:00.367Z,1012.28
2018-06-21T09:42:00.296Z,1013.04
2018-06-21T09:43:00.322Z,1013.52
2018-06-21T09:44:03.821Z,1013.34
2018-06-21T09:45:00.328Z,1013.07
2018-06-21T09:46:00.415Z,1012.82
2018-06-21T09:47:00.797Z,1012.69
2018-06-21T09:48:00.422Z,1012.67
2018-06-21T09:49:00.405Z,1012.68
2018-06-21T09:50:00.380Z,1012.68
2018-06-21T09:51:00.419Z,1012.49
2018-06-21T09:52:00.388Z,1012.41
2018-06-21T09:53:00.438Z,1012.33
2018-06-21T09:54:00.474Z,1012.42
2018-06-21T09:55:00.430Z,1012.43
2018-06-21T09:56:00.435Z,1011.79
2018-06-21T09:57:00.424Z,1012.71
2018-06-21T09:58:01.305Z,1011.83
2018-06-21T09:59:00.474Z,1012.88
2018-06-21T10:00:00.931Z,1012.47
2018-06-21T10:01:00.514Z,1011.68
2018-06-21T10:02:00.625Z,1011.79
2018-06-21T10:03:01.450Z,1012.62
2018-06-21T10:04:00.531Z,1012.02
2018-06-21T10:05:00.542Z,1012.55
2018-06-21T10:06:00.792Z,1011.97
2018-06-21T10:07:00.690Z,1011.60
2018-06-21T10:08:00.551Z,1011.78
2018-06-21T10:09:01.312Z,1011.94
2018-06-21T10:10:00.645Z,1011.72
2018-06-21T10:11:00.688Z,1011.68
2018-06-21T10:12:01.569Z,1011.95
2018-06-21T10:13:00.930Z,1012.16
2018-06-21T10:14:00.679Z,1011.93
2018-06-21T10:15:01.311Z,1012.00
2018-06-21T10:16:00.703Z,1012.43
2018-06-21T10:17:00.654Z,1012.25
2018-06-21T10:18:00.669Z,1012.44
2018-06-21T10:19:01.305Z,1012.43
2018-06-21T10:20:00.679Z,1012.24
2018-06-21T10:21:00.726Z,1012.27
2018-06-21T10:22:00.726Z,1012.43
2018-06-21T10:23:00.702Z,1012.30
2018-06-21T10:24:00.806Z,1012.30
2018-06-21T10:25:00.817Z,1012.31
2018-06-21T10:26:00.758Z,1012.34
2018-06-21T10:27:00.734Z,1012.64
2018-06-21T10:28:00.789Z,1012.17
2018-06-21T10:29:00.794Z,1012.49
2018-06-21T10:30:06.672Z,1012.60
2018-06-21T10:31:02.340Z,1012.43
2018-06-21T10:32:00.841Z,1012.52
2018-06-21T10:33:00.963Z,1012.43
2018-06-21T10:34:00.927Z,1012.35
2018-06-21T10:35:00.939Z,1012.32
2018-06-21T10:36:00.969Z,1012.28
2018-06-21T10:37:00.924Z,1012.29
2018-06-21T10:38:00.891Z,1011.90
2018-06-21T10:39:01.003Z,1012.02
2018-06-21T10:40:00.911Z,1012.39
2018-06-21T10:41:01.428Z,1012.25
2018-06-21T10:42:08.326Z,1012.19
2018-06-21T10:43:11.545Z,1012.10
2018-06-21T10:44:00.954Z,1012.14
2018-06-21T10:45:01.058Z,1012.38
2018-06-21T10:46:01.838Z,1012.21
2018-06-21T10:47:01.034Z,1012.02
2018-06-21T10:48:01.040Z,1011.98
2018-06-21T10:49:01.112Z,1012.04
2018-06-21T10:50:01.055Z,1012.20
2018-06-21T10:51:01.024Z,1011.97
2018-06-21T10:52:01.099Z,1011.97
2018-06-21T10:53:01.024Z,1012.18
2018-06-21T10:54:01.055Z,1012.13
2018-06-21T10:55:01.836Z,1012.03
2018-06-21T10:56:01.039Z,1012.15
2018-06-21T10:57:01.084Z,1012.23
2018-06-21T10:58:01.090Z,1012.22
2018-06-21T10:59:01.061Z,1012.45
2018-06-21T11:00:01.151Z,1012.42
2018-06-21T11:01:01.081Z,1012.48
2018-06-21T11:02:01.081Z,1012.33
2018-06-21T11:03:01.239Z,1012.32
2018-06-21T11:04:01.072Z,1012.20
2018-06-21T11:05:01.082Z,1012.24
2018-06-21T11:06:01.066Z,1012.39
2018-06-21T11:07:01.140Z,1012.34
2018-06-21T11:08:01.122Z,1012.46
2018-06-21T11:09:01.125Z,1012.45
2018-06-21T11:10:01.156Z,1012.18
2018-06-21T11:11:01.105Z,1012.30
2018-06-21T11:12:01.163Z,1012.36
2018-06-21T11:13:01.148Z,1012.18
2018-06-21T11:14:01.191Z,1012.12
2018-06-21T11:15:01.243Z,1012.41
2018-06-21T11:16:01.325Z,1012.37
2018-06-21T11:17:01.332Z,1012.35
2018-06-21T11:18:01.219Z,1012.39
2018-06-21T11:19:01.263Z,1012.55
2018-06-21T11:20:01.191Z,1012.62
2018-06-21T11:21:01.140Z,1012.72
2018-06-21T11:22:01.244Z,1012.48
2018-06-21T11:23:01.880Z,1012.53
2018-06-21T11:24:01.235Z,1012.52
2018-06-21T11:25:01.383Z,1012.61
2018-06-21T11:26:01.992Z,1012.67
2018-06-21T11:27:01.212Z,1012.65
2018-06-21T11:28:01.269Z,1012.64
2018-06-21T11:29:01.296Z,1012.64
2018-06-21T11:30:01.897Z,1012.61
2018-06-21T11:31:01.341Z,1012.67
2018-06-21T11:32:01.273Z,1012.57
2018-06-21T11:33:01.484Z,1012.45
2018-06-21T11:34:02.059Z,1012.53
2018-06-21T11:35:01.269Z,1012.60
2018-06-21T11:36:01.852Z,1012.59
2018-06-21T11:37:01.373Z,1012.77
2018-06-21T11:38:01.227Z,1012.74
2018-06-21T11:39:01.381Z,1012.73
2018-06-21T11:40:01.400Z,1012.71
2018-06-21T11:41:01.295Z,1012.59
2018-06-21T11:42:01.306Z,1012.57
2018-06-21T11:43:01.338Z,1012.54
2018-06-21T11:44:01.286Z,1012.42
2018-06-21T11:45:01.861Z,1012.47
2018-06-21T11:46:01.301Z,1012.54
2018-06-21T11:47:01.316Z,1012.55
2018-06-21T11:48:01.331Z,1012.65
2018-06-21T11:49:01.411Z,1012.51
2018-06-21T11:50:02.044Z,1012.59
2018-06-21T11:51:01.467Z,1012.63
2018-06-21T11:52:01.421Z,1012.65
2018-06-21T11:53:01.356Z,1012.81
2018-06-21T11:54:01.372Z,1012.97
2018-06-21T11:55:01.922Z,1012.81
2018-06-21T11:56:02.226Z,1012.70
2018-06-21T11:57:02.496Z,1012.85
2018-06-21T11:58:02.863Z,1012.71
2018-06-21T11:59:01.644Z,1012.70
2018-06-21T12:00:01.427Z,1012.68
2018-06-21T12:01:01.693Z,1012.72
2018-06-21T12:02:01.624Z,1012.73
2018-06-21T12:03:01.452Z,1012.74
2018-06-21T12:04:01.641Z,1012.88
2018-06-21T12:05:01.417Z,1012.69
2018-06-21T12:06:01.356Z,1012.79
2018-06-21T12:07:01.370Z,1012.84